Time;durP1;ratioP1;P1;durP2;ratioP2;P2;SDS_P1;SDS_P2;PMS_P1;PMS_P2;Temp;Humidity;BMP_temperature;BMP_pressure;BME280_temperature;BME280_humidity;BME280_pressure;Samples;Min_cycle;Max_cycle;Signal;HPM_P1;HPM_P2
2023/08/18 00:02:12;;;;;;;;;;;;;;;;;;6184564;28;20398;-70
2023/08/18 00:05:12;;;;;;;;;;;;;;;;;;6184184;28;19916;-75
2023/08/18 00:08:13;;;;;;;;;;;;;;;;;;6195906;28;19913;-70
2023/08/18 00:11:13;;;;;;;;;;;;;;;;;;6186054;28;19917;-71
2023/08/18 00:14:13;;;;;;;;;;;;;;;;;;6189501;28;20379;-70
2023/08/18 00:17:13;;;;;;;;;;;;;;;;;;6186514;28;19946;-71
2023/08/18 00:20:13;;;;;;;;;;;;;;;;;;6188280;28;19917;-71
2023/08/18 00:23:13;;;;;;;;;;;;;;;;;;6185343;28;19910;-70
2023/08/18 00:26:14;;;;;;;;;;;;;;;;;;6184356;28;19937;-71
2023/08/18 00:29:14;;;;;;;;;;;;;;;;;;6189762;28;19933;-71
2023/08/18 00:32:14;;;;;;;;;;;;;;;;;;6184704;28;19918;-71
2023/08/18 00:35:14;;;;;;;;;;;;;;;;;;6183915;28;19925;-70
2023/08/18 00:38:15;;;;;;;;;;;;;;;;;;6189853;28;20232;-70
2023/08/18 00:41:15;;;;;;;;;;;;;;;;;;6182085;28;19910;-71
2023/08/18 00:44:15;;;;;;;;;;;;;;;;;;6190753;28;20422;-71
2023/08/18 00:47:15;;;;;;;;;;;;;;;;;;6189785;28;19921;-70
2023/08/18 00:50:15;;;;;;;;;;;;;;;;;;6176036;28;19945;-71
2023/08/18 00:53:15;;;;;;;;;;;;;;;;;;5840506;28;10000466;-71
2023/08/18 00:56:15;;;;;;;;;;;;;;;;;;6190116;28;20372;-71
2023/08/18 00:59:16;;;;;;;;;;;;;;;;;;6190634;28;19922;-71
2023/08/18 01:02:16;;;;;;;;;;;;;;;;;;6192069;28;20008;-72
2023/08/18 01:05:16;;;;;;;;;;;;;;;;;;6186747;28;20012;-71
2023/08/18 01:08:16;;;;;;;;;;;;;;;;;;6186849;28;20648;-70
2023/08/18 01:11:17;;;;;;;;;;;;;;;;;;6192384;28;19933;-70
2023/08/18 01:14:17;;;;;;;;;;;;;;;;;;6187688;28;20045;-71
2023/08/18 01:17:19;;;;;;;;;;;;;;;;;;6188472;28;20353;-71
2023/08/18 01:20:19;;;;;;;;;;;;;;;;;;6190834;28;19917;-71
2023/08/18 01:23:19;;;;;;;;;;;;;;;;;;6188780;28;19964;-70
2023/08/18 01:26:19;;;;;;;;;;;;;;;;;;6190274;28;20004;-70
2023/08/18 01:29:19;;;;;;;;;;;;;;;;;;6186250;28;20301;-71
2023/08/18 01:32:20;;;;;;;;;;;;;;;;;;6183953;28;19910;-70
2023/08/18 01:35:20;;;;;;;;;;;;;;;;;;6188249;28;19921;-70
2023/08/18 01:38:20;;;;;;;;;;;;;;;;;;6184891;28;20391;-70
2023/08/18 01:41:20;;;;;;;;;;;;;;;;;;6182867;28;19961;-70
2023/08/18 01:44:20;;;;;;;;;;;;;;;;;;6185429;28;20060;-71
2023/08/18 01:47:20;;;;;;;;;;;;;;;;;;6184676;28;19916;-71
2023/08/18 01:50:20;;;;;;;;;;;;;;;;;;6187592;28;20028;-71
2023/08/18 01:53:20;;;;;;;;;;;;;;;;;;6185831;28;19916;-70
2023/08/18 01:56:20;;;;;;;;;;;;;;;;;;6186655;28;19960;-70
2023/08/18 01:59:21;;;;;;;;;;;;;;;;;;6192683;28;20000;-70
2023/08/18 02:02:21;;;;;;;;;;;;;;;;;;6188683;28;19917;-71
2023/08/18 02:05:21;;;;;;;;;;;;;;;;;;6186666;28;19921;-70
2023/08/18 02:08:21;;;;;;;;;;;;;;;;;;6186728;28;19910;-70
2023/08/18 02:11:21;;;;;;;;;;;;;;;;;;6185845;28;19909;-70
2023/08/18 02:14:21;;;;;;;;;;;;;;;;;;6165495;28;19980;-71
2023/08/18 02:17:22;;;;;;;;;;;;;;;;;;6181445;28;20016;-70
2023/08/18 02:20:22;;;;;;;;;;;;;;;;;;6189496;28;19995;-70
2023/08/18 02:23:22;;;;;;;;;;;;;;;;;;6188217;28;19909;-70
2023/08/18 02:26:22;;;;;;;;;;;;;;;;;;6184033;28;20411;-70
2023/08/18 02:29:22;;;;;;;;;;;;;;;;;;6180802;28;20005;-70
2023/08/18 02:32:23;;;;;;;;;;;;;;;;;;6186646;28;20361;-71
2023/08/18 02:35:23;;;;;;;;;;;;;;;;;;6186840;28;20321;-71
2023/08/18 02:38:23;;;;;;;;;;;;;;;;;;6186146;28;19964;-71
2023/08/18 02:41:24;;;;;;;;;;;;;;;;;;6186840;28;19910;-71
2023/08/18 02:44:25;;;;;;;;;;;;;;;;;;6184942;28;19953;-75
2023/08/18 02:47:26;;;;;;;;;;;;;;;;;;6185377;28;19910;-70
2023/08/18 02:50:26;;;;;;;;;;;;;;;;;;6183930;28;20380;-72
2023/08/18 02:53:26;;;;;;;;;;;;;;;;;;6188634;28;19926;-71
2023/08/18 02:56:26;;;;;;;;;;;;;;;;;;6180647;28;20596;-70
2023/08/18 02:59:26;;;;;;;;;;;;;;;;;;6184907;28;19999;-70
2023/08/18 03:02:27;;;;;;;;;;;;;;;;;;6188013;28;19977;-70
2023/08/18 03:05:27;;;;;;;;;;;;;;;;;;6194032;28;20239;-70
2023/08/18 03:08:27;;;;;;;;;;;;;;;;;;6184991;28;19918;-70
2023/08/18 03:11:27;;;;;;;;;;;;;;;;;;6183418;28;19960;-71
2023/08/18 03:14:27;;;;;;;;;;;;;;;;;;6185373;28;19921;-71
2023/08/18 03:17:27;;;;;;;;;;;;;;;;;;6184323;28;19909;-71
2023/08/18 03:20:27;;;;;;;;;;;;;;;;;;6183895;28;19921;-70
2023/08/18 03:23:28;;;;;;;;;;;;;;;;;;6177591;28;19917;-70
2023/08/18 03:26:28;;;;;;;;;;;;;;;;;;6180819;28;20727;-75
2023/08/18 03:29:28;;;;;;;;;;;;;;;;;;6185841;28;20008;-71
2023/08/18 03:32:28;;;;;;;;;;;;;;;;;;6182904;28;19960;-71
2023/08/18 03:35:30;;;;;;;;;;;;;;;;;;6186280;28;19921;-65
2023/08/18 03:38:30;;;;;;;;;;;;;;;;;;6176123;28;19910;-65
2023/08/18 03:41:30;;;;;;;;;;;;;;;;;;6179022;28;19909;-66
2023/08/18 03:44:30;;;;;;;;;;;;;;;;;;6178704;28;19996;-64
2023/08/18 03:47:31;;;;;;;;;;;;;;;;;;6171292;28;19910;-66
2023/08/18 03:50:31;;;;;;;;;;;;;;;;;;6171500;28;19981;-65
2023/08/18 03:53:31;;;;;;;;;;;;;;;;;;6173335;28;19913;-65
2023/08/18 03:56:31;;;;;;;;;;;;;;;;;;6169287;28;19917;-65
2023/08/18 03:59:31;;;;;;;;;;;;;;;;;;6174538;28;21168;-64
2023/08/18 04:02:33;;;;;;;;;;;;;;;;;;6180008;28;19921;-65
2023/08/18 04:05:33;;;;;;;;;;;;;;;;;;6174793;28;20324;-65
2023/08/18 04:08:33;;;;;;;;;;;;;;;;;;6170301;28;20382;-65
2023/08/18 04:11:34;;;;;;;;;;;;;;;;;;6172079;28;19917;-64
2023/08/18 04:14:34;;;;;;;;;;;;;;;;;;6174383;28;20354;-65
2023/08/18 04:17:34;;;;;;;;;;;;;;;;;;6169594;28;21172;-64
2023/08/18 04:20:35;;;;;;;;;;;;;;;;;;6191633;28;19909;-66
2023/08/18 04:23:35;;;;;;;;;;;;;;;;;;6188157;28;19941;-67
2023/08/18 04:26:37;;;;;;;;;;;;;;;;;;6185347;28;20001;-65
2023/08/18 04:29:37;;;;;;;;;;;;;;;;;;6187043;28;20351;-65
2023/08/18 04:32:37;;;;;;;;;;;;;;;;;;6194719;28;20403;-65
2023/08/18 04:35:37;;;;;;;;;;;;;;;;;;6185928;28;20044;-66
2023/08/18 04:38:37;;;;;;;;;;;;;;;;;;6192101;28;19917;-66
2023/08/18 04:41:38;;;;;;;;;;;;;;;;;;6176538;28;20372;-66
2023/08/18 04:44:38;;;;;;;;;;;;;;;;;;6178156;28;19965;-65
2023/08/18 04:47:38;;;;;;;;;;;;;;;;;;6182492;28;20012;-71
2023/08/18 04:50:38;;;;;;;;;;;;;;;;;;6187421;28;19920;-71
2023/08/18 04:53:39;;;;;;;;;;;;;;;;;;6191257;28;20052;-71
2023/08/18 04:56:39;;;;;;;;;;;;;;;;;;6182635;28;20341;-71
2023/08/18 04:59:39;;;;;;;;;;;;;;;;;;6187030;28;19932;-71
2023/08/18 05:02:39;;;;;;;;;;;;;;;;;;6187023;28;20348;-73
2023/08/18 05:05:39;;;;;;;;;;;;;;;;;;6184741;28;19920;-71
2023/08/18 05:08:40;;;;;;;;;;;;;;;;;;6189826;28;19918;-71
2023/08/18 05:11:40;;;;;;;;;;;;;;;;;;6180593;28;19914;-71
2023/08/18 05:14:40;;;;;;;;;;;;;;;;;;6185477;28;19921;-71
2023/08/18 05:17:40;;;;;;;;;;;;;;;;;;6185765;28;19917;-71
2023/08/18 05:20:41;;;;;;;;;;;;;;;;;;6180085;28;19972;-71
2023/08/18 05:23:41;;;;;;;;;;;;;;;;;;6175471;28;19968;-75
2023/08/18 05:26:41;;;;;;;;;;;;;;;;;;6182783;28;19909;-71
2023/08/18 05:29:41;;;;;;;;;;;;;;;;;;6181935;28;20372;-71
2023/08/18 05:32:42;;;;;;;;;;;;;;;;;;6185035;28;20025;-71
2023/08/18 05:35:42;;;;;;;;;;;;;;;;;;6187122;28;19948;-71
2023/08/18 05:38:42;;;;;;;;;;;;;;;;;;6191571;28;19964;-72
2023/08/18 05:41:42;;;;;;;;;;;;;;;;;;6181373;28;19964;-70
2023/08/18 05:44:42;;;;;;;;;;;;;;;;;;6183118;28;19917;-70
2023/08/18 05:47:42;;;;;;;;;;;;;;;;;;6182879;28;20452;-70
2023/08/18 05:50:42;;;;;;;;;;;;;;;;;;6189307;28;20016;-70
2023/08/18 05:53:42;;;;;;;;;;;;;;;;;;6181942;28;20283;-71
2023/08/18 05:56:44;;;;;;;;;;;;;;;;;;6185535;28;19925;-65
2023/08/18 05:59:44;;;;;;;;;;;;;;;;;;6181418;28;19930;-65
2023/08/18 06:02:44;;;;;;;;;;;;;;;;;;6190511;28;19924;-65
2023/08/18 06:05:44;;;;;;;;;;;;;;;;;;6183339;28;19938;-69
2023/08/18 06:08:44;;;;;;;;;;;;;;;;;;6185366;28;19917;-65
2023/08/18 06:11:45;;;;;;;;;;;;;;;;;;6183005;28;19950;-65
2023/08/18 06:14:45;;;;;;;;;;;;;;;;;;6191172;28;19925;-66
2023/08/18 06:17:45;;;;;;;;;;;;;;;;;;6198527;28;19929;-66
2023/08/18 06:20:45;;;;;;;;;;;;;;;;;;6203042;28;20001;-65
2023/08/18 06:23:45;;;;;;;;;;;;;;;;;;6186906;28;19909;-65
2023/08/18 06:26:46;;;;;;;;;;;;;;;;;;6190801;28;20395;-65
2023/08/18 06:29:46;;;;;;;;;;;;;;;;;;6188880;28;20357;-64
2023/08/18 06:32:46;;;;;;;;;;;;;;;;;;6193013;28;20008;-64
2023/08/18 06:35:46;;;;;;;;;;;;;;;;;;6178449;28;19913;-65
2023/08/18 06:38:46;;;;;;;;;;;;;;;;;;6191516;28;19963;-66
2023/08/18 06:41:46;;;;;;;;;;;;;;;;;;6170017;28;19914;-63
2023/08/18 06:44:46;;;;;;;;;;;;;;;;;;6174516;28;20451;-65
2023/08/18 06:47:46;;;;;;;;;;;;;;;;;;6173042;28;20004;-71
2023/08/18 06:50:47;;;;;;;;;;;;;;;;;;6173234;28;19925;-65
2023/08/18 06:53:47;;;;;;;;;;;;;;;;;;6187019;28;19972;-66
2023/08/18 06:56:47;;;;;;;;;;;;;;;;;;6186252;28;19997;-63
2023/08/18 06:59:48;;;;;;;;;;;;;;;;;;6186602;28;20503;-66
2023/08/18 07:02:49;;;;;;;;;;;;;;;;;;6186726;28;19917;-65
2023/08/18 07:05:49;;;;;;;;;;;;;;;;;;6173884;28;20459;-67
2023/08/18 07:08:49;;;;;;;;;;;;;;;;;;6175886;28;19910;-69
2023/08/18 07:11:49;;;;;;;;;;;;;;;;;;6180535;28;19957;-75
2023/08/18 07:14:50;;;;;;;;;;;;;;;;;;6185679;28;20301;-67
2023/08/18 07:17:50;;;;;;;;;;;;;;;;;;6175489;28;19910;-68
2023/08/18 07:20:52;;;;;;;;;;;;;;;;;;6190173;28;19909;-70
2023/08/18 07:23:52;;;;;;;;;;;;;;;;;;6199677;28;20388;-71
2023/08/18 07:26:53;;;;;;;;;;;;;;;;;;6197326;28;20004;-68
2023/08/18 07:29:54;;;;;;;;;;;;;;;;;;6196808;28;19924;-68
2023/08/18 07:32:55;;;;;;;;;;;;;;;;;;6181315;28;19918;-71
2023/08/18 07:35:56;;;;;;;;;;;;;;;;;;5834955;28;10000545;-70
2023/08/18 07:38:56;;;;;;;;;;;;;;;;;;6176357;28;19972;-70
2023/08/18 07:41:56;;;;;;;;;;;;;;;;;;6177451;28;19913;-71
2023/08/18 07:44:56;;;;;;;;;;;;;;;;;;6179388;28;19924;-72
2023/08/18 07:47:57;;;;;;;;;;;;;;;;;;6182942;28;20741;-73
2023/08/18 07:50:57;;;;;;;;;;;;;;;;;;6180509;28;19924;-76
2023/08/18 07:53:57;;;;;;;;;;;;;;;;;;6184657;28;20360;-76
2023/08/18 07:56:58;;;;;;;;;;;;;;;;;;6187488;28;19996;-75
2023/08/18 07:59:58;;;;;;;;;;;;;;;;;;6182940;28;19932;-78
2023/08/18 08:02:58;;;;;;;;;;;;;;;;;;6170381;28;19925;-74
2023/08/18 08:05:58;;;;;;;;;;;;;;;;;;6150294;28;20547;-73
2023/08/18 08:08:59;;;;;;;;;;;;;;;;;;6158922;28;19917;-76
2023/08/18 08:11:59;;;;;;;;;;;;;;;;;;6152890;28;19963;-84
2023/08/18 08:14:59;;;;;;;;;;;;;;;;;;6156474;28;20615;-73
2023/08/18 08:17:59;;;;;;;;;;;;;;;;;;6150470;28;19924;-81
2023/08/18 08:21:00;;;;;;;;;;;;;;;;;;6165643;28;20024;-79
2023/08/18 08:24:00;;;;;;;;;;;;;;;;;;6160929;28;20440;-79
2023/08/18 08:27:00;;;;;;;;;;;;;;;;;;6157828;28;19924;-85
2023/08/18 08:30:02;;;;;;;;;;;;;;;;;;6160778;28;19952;-80
2023/08/18 08:33:03;;;;;;;;;;;;;;;;;;6159685;28;19944;-74
2023/08/18 08:36:04;;;;;;;;;;;;;;;;;;6166501;28;19922;-77
2023/08/18 08:39:04;;;;;;;;;;;;;;;;;;6159327;28;19917;-79
2023/08/18 08:42:04;;;;;;;;;;;;;;;;;;6161365;28;19913;-82
2023/08/18 08:45:04;;;;;;;;;;;;;;;;;;6158867;28;20025;-82
2023/08/18 08:48:04;;;;;;;;;;;;;;;;;;6165451;28;19988;-77
2023/08/18 08:51:04;;;;;;;;;;;;;;;;;;6157223;28;19964;-85
2023/08/18 08:54:04;;;;;;;;;;;;;;;;;;6158263;28;20530;-78
2023/08/18 08:57:04;;;;;;;;;;;;;;;;;;6160401;28;19921;-82
2023/08/18 09:00:05;;;;;;;;;;;;;;;;;;6161668;28;19930;-77
2023/08/18 09:03:06;;;;;;;;;;;;;;;;;;6163409;28;20036;-83
2023/08/18 09:06:07;;;;;;;;;;;;;;;;;;6164207;28;20003;-77
2023/08/18 09:09:07;;;;;;;;;;;;;;;;;;6158755;28;19918;-74
2023/08/18 09:12:08;;;;;;;;;;;;;;;;;;6157292;28;19913;-72
2023/08/18 09:15:09;;;;;;;;;;;;;;;;;;6166364;28;20372;-75
2023/08/18 09:18:09;;;;;;;;;;;;;;;;;;6164989;28;20471;-74
2023/08/18 09:21:10;;;;;;;;;;;;;;;;;;6165554;28;20406;-74
2023/08/18 09:24:10;;;;;;;;;;;;;;;;;;6160128;28;19918;-75
2023/08/18 09:27:11;;;;;;;;;;;;;;;;;;6160665;28;19925;-79
2023/08/18 09:30:11;;;;;;;;;;;;;;;;;;5475785;28;10001038;-75
2023/08/18 09:33:11;;;;;;;;;;;;;;;;;;6161992;28;19918;-72
2023/08/18 09:36:11;;;;;;;;;;;;;;;;;;6165858;28;19914;-77
2023/08/18 09:39:11;;;;;;;;;;;;;;;;;;6179704;28;19996;-78
2023/08/18 09:42:11;;;;;;;;;;;;;;;;;;6172452;28;20017;-74
2023/08/18 09:45:11;;;;;;;;;;;;;;;;;;6164128;28;19918;-76
2023/08/18 09:48:13;;;;;;;;;;;;;;;;;;6165833;28;19910;-73
2023/08/18 09:51:13;;;;;;;;;;;;;;;;;;6163202;28;20024;-73
2023/08/18 09:54:13;;;;;;;;;;;;;;;;;;6156197;28;20013;-74
2023/08/18 09:57:13;;;;;;;;;;;;;;;;;;6158719;28;20192;-77
2023/08/18 10:00:14;;;;;;;;;;;;;;;;;;6160960;28;19929;-75
2023/08/18 10:03:16;;;;;;;;;;;;;;;;;;6163511;28;19924;-73
2023/08/18 10:06:17;;;;;;;;;;;;;;;;;;6158616;28;19917;-75
2023/08/18 10:09:17;;;;;;;;;;;;;;;;;;6166456;28;19952;-73
2023/08/18 10:12:17;;;;;;;;;;;;;;;;;;6160079;28;20541;-75
2023/08/18 10:15:17;;;;;;;;;;;;;;;;;;6162317;28;19922;-74
2023/08/18 10:18:18;;;;;;;;;;;;;;;;;;6158151;28;21200;-74
2023/08/18 10:21:19;;;;;;;;;;;;;;;;;;6159439;28;19952;-72
2023/08/18 10:24:19;;;;;;;;;;;;;;;;;;6158990;28;19919;-78
2023/08/18 10:27:19;;;;;;;;;;;;;;;;;;6160025;28;19918;-73
2023/08/18 10:30:19;;;;;;;;;;;;;;;;;;6160288;28;19914;-77
2023/08/18 10:33:19;;;;;;;;;;;;;;;;;;6156825;28;19931;-78
2023/08/18 10:36:19;;;;;;;;;;;;;;;;;;6159189;28;20269;-66
2023/08/18 10:39:20;;;;;;;;;;;;;;;;;;6158615;28;20032;-66
2023/08/18 10:42:20;;;;;;;;;;;;;;;;;;6161246;28;19917;-71
2023/08/18 10:45:20;;;;;;;;;;;;;;;;;;6157893;28;19924;-67
2023/08/18 10:48:20;;;;;;;;;;;;;;;;;;6157027;28;19997;-67
2023/08/18 10:51:21;;;;;;;;;;;;;;;;;;6160206;28;20350;-66
2023/08/18 10:54:21;;;;;;;;;;;;;;;;;;6157344;28;19922;-63
2023/08/18 10:57:21;;;;;;;;;;;;;;;;;;6162523;28;20302;-66
2023/08/18 11:00:21;;;;;;;;;;;;;;;;;;6155603;28;19929;-68
2023/08/18 11:03:21;;;;;;;;;;;;;;;;;;6161182;28;19917;-68
2023/08/18 11:06:26;;;;;;;;;;;;;;;;;;6157056;28;20386;-68
2023/08/18 11:09:26;;;;;;;;;;;;;;;;;;6163434;28;19926;-73
2023/08/18 11:12:26;;;;;;;;;;;;;;;;;;6161895;28;19961;-66
2023/08/18 11:15:26;;;;;;;;;;;;;;;;;;6163843;28;19966;-69
2023/08/18 11:18:26;;;;;;;;;;;;;;;;;;6164739;28;20331;-66
2023/08/18 11:21:27;;;;;;;;;;;;;;;;;;6167073;28;19932;-67
2023/08/18 11:24:27;;;;;;;;;;;;;;;;;;6156535;28;19925;-71
2023/08/18 11:27:28;;;;;;;;;;;;;;;;;;6154339;28;20117;-66
2023/08/18 11:30:28;;;;;;;;;;;;;;;;;;6157484;28;19926;-66
2023/08/18 11:33:28;;;;;;;;;;;;;;;;;;5813181;28;10000026;-66
2023/08/18 11:36:28;;;;;;;;;;;;;;;;;;6157867;28;19928;-68
2023/08/18 11:39:28;;;;;;;;;;;;;;;;;;6163350;28;19952;-67
2023/08/18 11:42:28;;;;;;;;;;;;;;;;;;6164099;28;19917;-69
2023/08/18 11:45:29;;;;;;;;;;;;;;;;;;6165652;28;20276;-70
2023/08/18 11:48:29;;;;;;;;;;;;;;;;;;6158985;28;20387;-72
2023/08/18 11:51:29;;;;;;;;;;;;;;;;;;6160242;28;20001;-69
2023/08/18 11:54:32;;;;;;;;;;;;;;;;;;6165123;28;19922;-71
2023/08/18 11:57:32;;;;;;;;;;;;;;;;;;6157792;28;19922;-71
2023/08/18 12:00:35;;;;;;;;;;;;;;;;;;6160071;28;19945;-73
2023/08/18 12:03:35;;;;;;;;;;;;;;;;;;6156148;28;19928;-72
2023/08/18 12:06:35;;;;;;;;;;;;;;;;;;6154684;28;19917;-71
2023/08/18 12:09:35;;;;;;;;;;;;;;;;;;6161721;28;19945;-66
2023/08/18 12:12:36;;;;;;;;;;;;;;;;;;6155954;28;20068;-67
2023/08/18 12:15:36;;;;;;;;;;;;;;;;;;6158782;28;19926;-71
2023/08/18 12:18:36;;;;;;;;;;;;;;;;;;6155539;28;21903;-71
2023/08/18 12:21:36;;;;;;;;;;;;;;;;;;6158797;28;20391;-73
2023/08/18 12:24:36;;;;;;;;;;;;;;;;;;6150522;28;20024;-68
2023/08/18 12:27:36;;;;;;;;;;;;;;;;;;6156040;28;19918;-72
2023/08/18 12:30:36;;;;;;;;;;;;;;;;;;6158108;28;20012;-73
2023/08/18 12:33:36;;;;;;;;;;;;;;;;;;6159275;28;20027;-72
2023/08/18 12:36:37;;;;;;;;;;;;;;;;;;6158270;28;19925;-75
2023/08/18 12:39:39;;;;;;;;;;;;;;;;;;6161491;28;20851;-71
2023/08/18 12:42:39;;;;;;;;;;;;;;;;;;6159101;28;19917;-80
2023/08/18 12:45:40;;;;;;;;;;;;;;;;;;6163797;28;19924;-72
2023/08/18 12:48:40;;;;;;;;;;;;;;;;;;6163063;28;19984;-75
2023/08/18 12:51:40;;;;;;;;;;;;;;;;;;6164178;28;20663;-76
2023/08/18 12:54:41;;;;;;;;;;;;;;;;;;6163807;28;20689;-78
2023/08/18 12:57:41;;;;;;;;;;;;;;;;;;5818939;28;9999701;-64
2023/08/18 13:00:41;;;;;;;;;;;;;;;;;;6160965;28;20288;-64
2023/08/18 13:03:42;;;;;;;;;;;;;;;;;;6164759;28;20376;-66
2023/08/18 13:06:42;;;;;;;;;;;;;;;;;;6163238;28;19947;-65
2023/08/18 13:09:42;;;;;;;;;;;;;;;;;;6161114;28;19933;-66
2023/08/18 13:12:42;;;;;;;;;;;;;;;;;;6156294;28;20378;-65
2023/08/18 13:15:43;;;;;;;;;;;;;;;;;;6160440;28;20011;-67
2023/08/18 13:18:43;;;;;;;;;;;;;;;;;;6160825;28;19969;-66
2023/08/18 13:21:43;;;;;;;;;;;;;;;;;;6159178;28;19918;-70
2023/08/18 13:24:43;;;;;;;;;;;;;;;;;;6162353;28;20463;-66
2023/08/18 13:27:44;;;;;;;;;;;;;;;;;;6158784;28;20004;-65
2023/08/18 13:30:44;;;;;;;;;;;;;;;;;;6160878;28;20380;-66
2023/08/18 13:33:44;;;;;;;;;;;;;;;;;;6162734;28;19918;-66
2023/08/18 13:36:44;;;;;;;;;;;;;;;;;;5827959;28;9999936;-68
2023/08/18 13:39:45;;;;;;;;;;;;;;;;;;5495467;28;10000768;-64
2023/08/18 13:42:45;;;;;;;;;;;;;;;;;;6187397;28;20522;-68
2023/08/18 13:45:45;;;;;;;;;;;;;;;;;;6199481;28;19910;-65
2023/08/18 13:48:45;;;;;;;;;;;;;;;;;;6209166;28;19979;-67
2023/08/18 13:51:45;;;;;;;;;;;;;;;;;;6187816;28;19913;-68
2023/08/18 13:54:45;;;;;;;;;;;;;;;;;;6199335;28;19920;-67
2023/08/18 13:57:45;;;;;;;;;;;;;;;;;;6197813;28;19921;-66
2023/08/18 14:00:46;;;;;;;;;;;;;;;;;;6192789;28;19937;-66
2023/08/18 14:03:46;;;;;;;;;;;;;;;;;;6187138;28;20385;-72
2023/08/18 14:06:46;;;;;;;;;;;;;;;;;;6180802;28;19980;-73
2023/08/18 14:09:47;;;;;;;;;;;;;;;;;;6184378;28;19949;-73
2023/08/18 14:12:47;;;;;;;;;;;;;;;;;;6190601;28;19913;-74
2023/08/18 14:15:47;;;;;;;;;;;;;;;;;;6166315;28;19944;-76
2023/08/18 14:18:48;;;;;;;;;;;;;;;;;;6186249;28;20369;-77
2023/08/18 14:21:48;;;;;;;;;;;;;;;;;;6186439;28;20178;-77
2023/08/18 14:24:48;;;;;;;;;;;;;;;;;;6185766;28;19917;-76
2023/08/18 14:27:48;;;;;;;;;;;;;;;;;;6191203;28;19983;-74
2023/08/18 14:30:48;;;;;;;;;;;;;;;;;;6185029;28;19972;-75
2023/08/18 14:33:48;;;;;;;;;;;;;;;;;;6184590;28;19913;-73
2023/08/18 14:36:48;;;;;;;;;;;;;;;;;;6188463;28;19922;-74
2023/08/18 14:39:48;;;;;;;;;;;;;;;;;;6183470;28;20052;-73
2023/08/18 14:42:49;;;;;;;;;;;;;;;;;;6183961;28;19917;-80
2023/08/18 14:45:49;;;;;;;;;;;;;;;;;;6192030;28;19914;-81
2023/08/18 14:48:49;;;;;;;;;;;;;;;;;;6188157;28;19941;-78
2023/08/18 14:51:49;;;;;;;;;;;;;;;;;;6180135;28;19964;-74
2023/08/18 14:54:49;;;;;;;;;;;;;;;;;;6185744;28;20017;-76
2023/08/18 14:57:49;;;;;;;;;;;;;;;;;;6184515;28;19937;-75
2023/08/18 15:00:51;;;;;;;;;;;;;;;;;;6183725;28;19976;-77
2023/08/18 15:03:51;;;;;;;;;;;;;;;;;;6186525;28;20116;-77
2023/08/18 15:06:52;;;;;;;;;;;;;;;;;;6183835;28;20346;-79
2023/08/18 15:09:52;;;;;;;;;;;;;;;;;;6184344;28;19968;-79
2023/08/18 15:12:52;;;;;;;;;;;;;;;;;;6183164;28;19933;-77
2023/08/18 15:15:52;;;;;;;;;;;;;;;;;;6184834;28;20052;-78
2023/08/18 15:18:52;;;;;;;;;;;;;;;;;;6183555;28;19918;-73
2023/08/18 15:21:53;;;;;;;;;;;;;;;;;;6185978;28;19918;-76
2023/08/18 15:24:54;;;;;;;;;;;;;;;;;;6186945;28;19925;-73
2023/08/18 15:27:54;;;;;;;;;;;;;;;;;;6183861;28;20005;-74
2023/08/18 15:30:54;;;;;;;;;;;;;;;;;;6188724;28;19979;-75
2023/08/18 15:33:54;;;;;;;;;;;;;;;;;;5840651;28;10000078;-74
2023/08/18 15:36:54;;;;;;;;;;;;;;;;;;6185036;28;19964;-75
2023/08/18 15:39:54;;;;;;;;;;;;;;;;;;6182871;28;19997;-75
2023/08/18 15:42:55;;;;;;;;;;;;;;;;;;6180012;28;19949;-72
2023/08/18 15:45:55;;;;;;;;;;;;;;;;;;6188974;28;19918;-75
2023/08/18 15:48:55;;;;;;;;;;;;;;;;;;6187246;28;20329;-76
2023/08/18 15:51:55;;;;;;;;;;;;;;;;;;6180877;28;19922;-77
2023/08/18 15:54:55;;;;;;;;;;;;;;;;;;6184120;28;19928;-76
2023/08/18 15:57:55;;;;;;;;;;;;;;;;;;6187706;28;19959;-76
2023/08/18 16:00:55;;;;;;;;;;;;;;;;;;6192213;28;20479;-76
2023/08/18 16:03:56;;;;;;;;;;;;;;;;;;6185729;28;19913;-75
2023/08/18 16:06:57;;;;;;;;;;;;;;;;;;6191278;28;19936;-75
2023/08/18 16:09:57;;;;;;;;;;;;;;;;;;6194360;28;20403;-74
2023/08/18 16:12:57;;;;;;;;;;;;;;;;;;6186091;28;19914;-75
2023/08/18 16:15:57;;;;;;;;;;;;;;;;;;5845339;28;9999713;-75
2023/08/18 16:18:58;;;;;;;;;;;;;;;;;;6201484;28;19976;-75
2023/08/18 16:21:58;;;;;;;;;;;;;;;;;;6200128;28;19987;-75
2023/08/18 16:24:58;;;;;;;;;;;;;;;;;;6193576;28;19918;-74
2023/08/18 16:27:59;;;;;;;;;;;;;;;;;;6188698;28;20076;-74
2023/08/18 16:30:59;;;;;;;;;;;;;;;;;;6189923;28;19946;-76
2023/08/18 16:33:59;;;;;;;;;;;;;;;;;;6187042;28;19924;-75
2023/08/18 16:36:59;;;;;;;;;;;;;;;;;;6193935;28;20395;-75
2023/08/18 16:39:59;;;;;;;;;;;;;;;;;;6185980;28;19914;-75
2023/08/18 16:42:59;;;;;;;;;;;;;;;;;;6183882;28;19913;-79
2023/08/18 16:45:59;;;;;;;;;;;;;;;;;;6191734;28;19917;-77
2023/08/18 16:48:59;;;;;;;;;;;;;;;;;;6194607;28;19912;-76
2023/08/18 16:52:01;;;;;;;;;;;;;;;;;;6221839;28;19917;-76
2023/08/18 16:55:02;;;;;;;;;;;;;;;;;;6201544;28;20368;-78
2023/08/18 16:58:02;;;;;;;;;;;;;;;;;;6196102;28;19928;-76
2023/08/18 17:01:02;;;;;;;;;;;;;;;;;;6215175;28;20004;-78
2023/08/18 17:04:03;;;;;;;;;;;;;;;;;;6191716;28;20036;-77
2023/08/18 17:07:04;;;;;;;;;;;;;;;;;;6189218;28;20399;-76
2023/08/18 17:10:04;;;;;;;;;;;;;;;;;;6178076;28;20348;-75
2023/08/18 17:13:05;;;;;;;;;;;;;;;;;;6189104;28;20011;-77
2023/08/18 17:16:05;;;;;;;;;;;;;;;;;;6178660;28;19977;-75
2023/08/18 17:19:05;;;;;;;;;;;;;;;;;;6198642;28;19916;-76
2023/08/18 17:22:05;;;;;;;;;;;;;;;;;;6211147;28;19933;-75
2023/08/18 17:25:06;;;;;;;;;;;;;;;;;;6196231;28;20228;-79
2023/08/18 17:28:06;;;;;;;;;;;;;;;;;;6194895;28;19958;-76
2023/08/18 17:31:06;;;;;;;;;;;;;;;;;;6189112;28;19971;-72
2023/08/18 17:34:06;;;;;;;;;;;;;;;;;;6183699;28;19921;-72
2023/08/18 17:37:06;;;;;;;;;;;;;;;;;;6183002;28;19918;-75
2023/08/18 17:40:06;;;;;;;;;;;;;;;;;;6183052;28;19920;-79
2023/08/18 17:43:06;;;;;;;;;;;;;;;;;;6189054;28;19932;-74
2023/08/18 17:46:08;;;;;;;;;;;;;;;;;;6170526;28;19949;-75
2023/08/18 17:49:08;;;;;;;;;;;;;;;;;;6186352;28;19914;-74
2023/08/18 17:52:08;;;;;;;;;;;;;;;;;;6182779;28;20008;-74
2023/08/18 17:55:08;;;;;;;;;;;;;;;;;;6182926;28;19922;-75
2023/08/18 17:58:08;;;;;;;;;;;;;;;;;;6180633;28;20359;-75
2023/08/18 18:01:08;;;;;;;;;;;;;;;;;;6180228;28;19926;-74
2023/08/18 18:04:08;;;;;;;;;;;;;;;;;;6180555;28;19925;-75
2023/08/18 18:07:08;;;;;;;;;;;;;;;;;;6182495;28;19925;-76
2023/08/18 18:10:09;;;;;;;;;;;;;;;;;;6187822;28;19918;-75
2023/08/18 18:13:09;;;;;;;;;;;;;;;;;;6187449;28;19989;-74
2023/08/18 18:16:09;;;;;;;;;;;;;;;;;;6187477;28;20376;-75
2023/08/18 18:19:09;;;;;;;;;;;;;;;;;;6192646;28;20015;-74
2023/08/18 18:22:09;;;;;;;;;;;;;;;;;;6183871;28;19913;-72
2023/08/18 18:25:09;;;;;;;;;;;;;;;;;;6179295;28;19916;-72
2023/08/18 18:28:09;;;;;;;;;;;;;;;;;;6190819;28;19910;-71
2023/08/18 18:31:10;;;;;;;;;;;;;;;;;;6183063;28;19916;-73
2023/08/18 18:34:10;;;;;;;;;;;;;;;;;;6184821;28;20499;-71
2023/08/18 18:37:10;;;;;;;;;;;;;;;;;;6180270;28;19913;-73
2023/08/18 18:40:10;;;;;;;;;;;;;;;;;;6191208;28;20372;-72
2023/08/18 18:43:10;;;;;;;;;;;;;;;;;;6190454;28;19976;-71
2023/08/18 18:46:10;;;;;;;;;;;;;;;;;;6192140;28;20075;-73
2023/08/18 18:49:11;;;;;;;;;;;;;;;;;;6183733;28;19917;-71
2023/08/18 18:52:12;;;;;;;;;;;;;;;;;;6184469;28;19910;-67
2023/08/18 18:55:12;;;;;;;;;;;;;;;;;;6185277;28;19933;-81
2023/08/18 18:58:12;;;;;;;;;;;;;;;;;;6181552;28;20462;-73
2023/08/18 19:01:12;;;;;;;;;;;;;;;;;;6177937;28;19922;-76
2023/08/18 19:04:13;;;;;;;;;;;;;;;;;;6179086;28;19917;-78
2023/08/18 19:07:13;;;;;;;;;;;;;;;;;;6184844;28;20363;-68
2023/08/18 19:10:13;;;;;;;;;;;;;;;;;;6179867;28;20367;-68
2023/08/18 19:13:13;;;;;;;;;;;;;;;;;;6174149;28;19924;-72
2023/08/18 19:16:13;;;;;;;;;;;;;;;;;;6179964;28;19922;-73
2023/08/18 19:19:13;;;;;;;;;;;;;;;;;;6158437;28;19921;-72
2023/08/18 19:22:13;;;;;;;;;;;;;;;;;;6179881;28;19949;-71
2023/08/18 19:25:13;;;;;;;;;;;;;;;;;;6180065;28;20295;-71
2023/08/18 19:28:14;;;;;;;;;;;;;;;;;;6176590;28;19918;-70
2023/08/18 19:31:14;;;;;;;;;;;;;;;;;;6174608;28;20396;-71
2023/08/18 19:34:14;;;;;;;;;;;;;;;;;;6180825;28;19914;-71
2023/08/18 19:37:14;;;;;;;;;;;;;;;;;;6182647;28;19953;-72
2023/08/18 19:40:14;;;;;;;;;;;;;;;;;;6175682;28;19965;-68
2023/08/18 19:43:15;;;;;;;;;;;;;;;;;;6176071;28;19972;-72
2023/08/18 19:46:15;;;;;;;;;;;;;;;;;;6178439;28;19964;-71
2023/08/18 19:49:15;;;;;;;;;;;;;;;;;;6184432;28;19917;-68
2023/08/18 19:52:15;;;;;;;;;;;;;;;;;;6190545;28;19918;-71
2023/08/18 19:55:15;;;;;;;;;;;;;;;;;;6181767;28;19917;-71
2023/08/18 19:58:15;;;;;;;;;;;;;;;;;;6186708;28;20423;-71
2023/08/18 20:01:15;;;;;;;;;;;;;;;;;;6186083;28;19922;-71
2023/08/18 20:04:15;;;;;;;;;;;;;;;;;;6187738;28;20665;-76
2023/08/18 20:07:16;;;;;;;;;;;;;;;;;;6189633;28;19918;-71
2023/08/18 20:10:16;;;;;;;;;;;;;;;;;;6185055;28;20015;-71
2023/08/18 20:13:16;;;;;;;;;;;;;;;;;;6198752;28;20383;-71
2023/08/18 20:16:17;;;;;;;;;;;;;;;;;;6185783;28;19928;-72
2023/08/18 20:19:17;;;;;;;;;;;;;;;;;;6194754;28;19918;-71
2023/08/18 20:22:17;;;;;;;;;;;;;;;;;;6188688;28;20017;-71
2023/08/18 20:25:17;;;;;;;;;;;;;;;;;;6190506;28;19983;-71
2023/08/18 20:28:17;;;;;;;;;;;;;;;;;;6193159;28;19914;-70